Nearby METAR Reports

 

KSJC - San Jose, California, USA
Distance from station: NE 14km
Actualización: 05/12/2019 15:53
Parcialmente nuboso
Parcialmente nuboso
 Viento del calm
Viento: Calma
Temperatura: 8°C
Rocío: 8°C
Humedad: 100%
Barómetro: 1017.3 hPa
Clouds: Parcialmente nuboso
Visibilidad: 16 km
Cloud details: Few Clouds 30 m
Few Clouds 1219 m
Parcialmente nuboso 3048 m
2019/12/05 14:53 KSJC 051453Z 00000KT 10SM FEW001 FEW040 SCT100 08/08 A3004 RMK AO2 SLP172 T00830078 53014
KNUQ - Moffett Nas/Mtn, California, USA
Distance from station: N 14km
Actualización: 21/11/2019 17:56
NOT Current

 
Barómetro: 1011.2 hPa
2019/11/21 16:56 KNUQ 211656Z AUTO A2986 RMK AO2 SLP116 PWINO $
 
KPAO - Palo Alto, California, USA
Distance from station: NNO 23km
Actualización: 05/12/2019 15:47
Mist, Cubierto
Mist, Cubierto
 Viento del calm
Viento: Calma
Temperatura: 11°C
Rocío: 11°C
Humedad: 100%
Barómetro: 1017.6 hPa
Resumen: Mist
Clouds: Cubierto
Visibilidad: 2 km
Cloud details: Cubierto 61 m
2019/12/05 14:47 KPAO 051447Z 00000KT 1SM BR OVC002 11/11 A3005
KRHV - San Jose/Reid, California, USA
Distance from station: ENE 19km
Actualización: 05/12/2019 01:47
NOT Current
Muy nuboso
Muy nuboso
 Viento del calm
Viento: Calma
Temperatura: 14°C
Rocío: 12°C
Humedad: 88%
Barómetro: 1011.2 hPa
Clouds: Muy nuboso
Visibilidad: 16 km
Cloud details: Parcialmente nuboso 610 m
Muy nuboso 1372 m
2019/12/05 00:47 KRHV 050047Z 00000KT 10SM SCT020 BKN045 14/12 A2986
 
KOAK - Oakland, California, USA
Distance from station: NNO 50km
Actualización: 05/12/2019 15:53
Mist, Patches of, Niebla, Few clouds
Mist, Patches of, Niebla, Few clouds
 Viento del calm
Viento: Calma
Temperatura: 9°C
Rocío: 8°C
Humedad: 94%
Barómetro: 1017.6 hPa
Resumen: Mist, Patches of, Niebla
Clouds: Few Clouds
Visibilidad: 8 km
Cloud details: Few Clouds 122 m
2019/12/05 14:53 KOAK 051453Z 00000KT 5SM BR BCFG FEW004 09/08 A3005 RMK AO2 SLP174 T00940078 53012
KSQL - San Carlos Airpo, California, USA
Distance from station: NO 34km
Actualización: 05/12/2019 15:50
Mist, Cubierto
Mist, Cubierto
 Viento del calm
Viento: Calma
Temperatura: 12°C
Rocío: 12°C
Humedad: 100%
Barómetro: 1017.6 hPa
Resumen: Mist
Clouds: Cubierto
Visibilidad: 6 km
Cloud details: Cubierto 213 m
2019/12/05 14:50 KSQL 051450Z 00000KT 4SM BR OVC007 12/12 A3005
 
KSFO - San Francisco, California, USA
Distance from station: NO 49km
Actualización: 05/12/2019 15:56
Mist, Cubierto
Mist, Cubierto
 Viento del E
Viento: E 7 km/h
Temperatura: 11°C
Rocío: 11°C
Humedad: 100%
Barómetro: 1017.3 hPa
Resumen: Mist
Clouds: Cubierto
Visibilidad: 5 km
Cloud details: Cubierto 213 m
2019/12/05 14:56 KSFO 051456Z 10004KT 3SM BR OVC007 11/11 A3004 RMK AO2 SLP173 T01110106 53012
KE16 - San Martin, California, USA
Distance from station: ESE 43km
Actualización: 14/11/2019 10:35
NOT Current
Cubierto
Cubierto
 Viento del SE
Viento: SE 11 km/h
Temperatura: 12°C
Rocío: 10°C
Humedad: 88%
Barómetro: 1017.6 hPa
Clouds: Cubierto
Visibilidad: 16 km
Cloud details: Cubierto 427 m
2019/11/14 09:35 KE16 140935Z AUTO 13006KT 10SM OVC014 12/10 A3005 RMK AO2
 
KWVI - Watsonville, California, USA
Distance from station: SSE 44km
Actualización: 05/12/2019 15:53
Despejado
Despejado
 Viento del calm
Viento: Calma
Temperatura: 9°C
Rocío: 9°C
Humedad: 100%
Barómetro: 1017.6 hPa
Clouds: Despejado
Visibilidad: 16 km
2019/12/05 14:53 KWVI 051453Z AUTO 00000KT 10SM CLR 09/09 A3005 RMK AO2 SLP175 T00940089 53012 $
KHAF - Half Moon Bay, California, USA
Distance from station: ONO 50km
Actualización: 05/12/2019 15:55
Parcialmente nuboso
Parcialmente nuboso
 Viento del calm
Viento: Calma
Temperatura: 8°C
Rocío: 8°C
Humedad: 100%
Barómetro: 1017.3 hPa
Clouds: Parcialmente nuboso
Visibilidad: 16 km
Cloud details: Parcialmente nuboso 1463 m
2019/12/05 14:55 KHAF 051455Z AUTO 00000KT 10SM SCT048 08/08 A3004 RMK AO2
 
KHWD - Hayward, California, USA
Distance from station: N 44km
Actualización: 05/12/2019 15:54
Despejado
Despejado
 Viento del NE
Viento: NE 11 km/h
Temperatura: 11°C
Rocío: 9°C
Humedad: 88%
Barómetro: 1017.3 hPa
Clouds: Despejado
Visibilidad: 13 km
2019/12/05 14:54 KHWD 051454Z 05006KT 8SM CLR 11/09 A3004 RMK AO2 SLP182 T01060089 53014
KLVK - Livermore, California, USA
Distance from station: NNE 51km
Actualización: 05/12/2019 15:53
Niebla, Cubierto
Niebla, Cubierto
 Viento del E
Viento: E 7 km/h
Temperatura: 9°C
Temp.Sensacion: 8°C
Rocío: 9°C
Humedad: 100%
Barómetro: 1017.3 hPa
Resumen: Niebla
Clouds: Cubierto
Visibilidad: 0.4 km
Cloud details: Cubierto 61 m
2019/12/05 14:53 KLVK 051453Z 08004KT 1/4SM FG VV002 09/09 A3004 RMK AO2 SLP171 T00940089 51009